sensor_id;sensor_type;location;lat;lon;timestamp;pressure;altitude;pressure_sealevel;temperature;humidity
76352;BME280;65179;47.786;19.138;2023-05-23T00:00:22;100030.25;;;17.71;77.04
76352;BME280;65179;47.786;19.138;2023-05-23T00:02:47;100036.81;;;17.95;76.40
76352;BME280;65179;47.786;19.138;2023-05-23T00:05:13;100030.22;;;17.96;76.29
76352;BME280;65179;47.786;19.138;2023-05-23T00:07:45;100028.03;;;17.83;76.86
76352;BME280;65179;47.786;19.138;2023-05-23T00:10:10;100040.69;;;17.79;77.01
76352;BME280;65179;47.786;19.138;2023-05-23T00:12:36;100030.22;;;17.91;76.24
76352;BME280;65179;47.786;19.138;2023-05-23T00:15:07;100034.06;;;17.95;76.23
76352;BME280;65179;47.786;19.138;2023-05-23T00:17:33;100030.22;;;18.01;75.66
76352;BME280;65179;47.786;19.138;2023-05-23T00:19:58;100031.88;;;17.87;76.36
76352;BME280;65179;47.786;19.138;2023-05-23T00:22:23;100037.09;;;17.79;76.57
76352;BME280;65179;47.786;19.138;2023-05-23T00:24:49;100031.06;;;17.72;76.40
76352;BME280;65179;47.786;19.138;2023-05-23T00:27:14;100032.44;;;17.79;76.07
76352;BME280;65179;47.786;19.138;2023-05-23T00:29:39;100026.13;;;17.69;76.42
76352;BME280;65179;47.786;19.138;2023-05-23T00:32:05;100031.59;;;17.59;76.81
76352;BME280;65179;47.786;19.138;2023-05-23T00:34:30;100025.81;;;17.45;77.09
76352;BME280;65179;47.786;19.138;2023-05-23T00:36:56;100022.81;;;17.36;77.95
76352;BME280;65179;47.786;19.138;2023-05-23T00:39:22;100021.19;;;17.66;76.25
76352;BME280;65179;47.786;19.138;2023-05-23T00:41:48;100020.63;;;17.59;76.61
76352;BME280;65179;47.786;19.138;2023-05-23T00:44:14;100022.03;;;17.56;76.33
76352;BME280;65179;47.786;19.138;2023-05-23T00:46:43;100021.44;;;17.49;76.77
76352;BME280;65179;47.786;19.138;2023-05-23T00:49:10;100023.41;;;17.54;76.37
76352;BME280;65179;47.786;19.138;2023-05-23T00:51:37;100028.56;;;17.45;76.94
76352;BME280;65179;47.786;19.138;2023-05-23T00:54:03;100024.16;;;17.44;77.02
76352;BME280;65179;47.786;19.138;2023-05-23T00:56:30;100025.00;;;17.44;77.45
76352;BME280;65179;47.786;19.138;2023-05-23T00:58:55;100024.72;;;17.41;77.63
76352;BME280;65179;47.786;19.138;2023-05-23T01:01:21;100029.34;;;17.30;77.74
76352;BME280;65179;47.786;19.138;2023-05-23T01:03:47;100023.59;;;17.37;77.20
76352;BME280;65179;47.786;19.138;2023-05-23T01:06:13;100026.91;;;17.39;76.02
76352;BME280;65179;47.786;19.138;2023-05-23T01:08:39;100028.56;;;17.30;76.31
76352;BME280;65179;47.786;19.138;2023-05-23T01:11:12;100031.84;;;17.27;76.45
76352;BME280;65179;47.786;19.138;2023-05-23T01:13:51;100029.34;;;17.30;75.61
76352;BME280;65179;47.786;19.138;2023-05-23T01:16:34;100038.97;;;17.23;75.45
76352;BME280;65179;47.786;19.138;2023-05-23T01:21:40;100043.31;;;17.09;75.51
76352;BME280;65179;47.786;19.138;2023-05-23T01:29:31;100038.88;;;16.88;76.70
76352;BME280;65179;47.786;19.138;2023-05-23T01:31:58;100035.03;;;16.84;76.78
76352;BME280;65179;47.786;19.138;2023-05-23T01:34:25;100028.44;;;16.80;77.28
76352;BME280;65179;47.786;19.138;2023-05-23T01:36:53;100038.06;;;16.82;77.17
76352;BME280;65179;47.786;19.138;2023-05-23T01:39:22;100032.56;;;16.82;77.17
76352;BME280;65179;47.786;19.138;2023-05-23T01:41:49;100035.00;;;16.79;77.35
76352;BME280;65179;47.786;19.138;2023-05-23T01:44:15;100032.28;;;16.84;77.29
76352;BME280;65179;47.786;19.138;2023-05-23T01:46:41;100021.59;;;16.82;77.40
76352;BME280;65179;47.786;19.138;2023-05-23T01:49:11;100024.91;;;16.84;77.29
76352;BME280;65179;47.786;19.138;2023-05-23T01:51:37;100027.59;;;16.79;77.23
76352;BME280;65179;47.786;19.138;2023-05-23T01:54:03;100021.03;;;16.80;77.18
76352;BME280;65179;47.786;19.138;2023-05-23T01:56:28;100025.12;;;16.73;77.81
76352;BME280;65179;47.786;19.138;2023-05-23T01:58:54;100022.38;;;16.73;77.66
76352;BME280;65179;47.786;19.138;2023-05-23T02:01:20;100015.72;;;16.53;78.53
76352;BME280;65179;47.786;19.138;2023-05-23T02:03:45;100009.72;;;16.61;78.22
76352;BME280;65179;47.786;19.138;2023-05-23T02:06:11;100013.81;;;16.54;78.58
76352;BME280;65179;47.786;19.138;2023-05-23T02:08:37;100012.75;;;16.60;78.60
76352;BME280;65179;47.786;19.138;2023-05-23T02:11:02;100019.81;;;16.51;79.17
76352;BME280;65179;47.786;19.138;2023-05-23T02:13:28;100011.59;;;16.51;79.17
76352;BME280;65179;47.786;19.138;2023-05-23T02:15:53;100012.50;;;16.66;77.92
76352;BME280;65179;47.786;19.138;2023-05-23T02:18:19;100011.94;;;16.64;77.76
76352;BME280;65179;47.786;19.138;2023-05-23T02:20:45;100020.88;;;16.45;78.40
76352;BME280;65179;47.786;19.138;2023-05-23T02:23:11;100010.81;;;16.55;77.93
76352;BME280;65179;47.786;19.138;2023-05-23T02:25:37;100010.53;;;16.57;78.01
76352;BME280;65179;47.786;19.138;2023-05-23T02:28:02;100003.31;;;16.46;78.44
76352;BME280;65179;47.786;19.138;2023-05-23T02:30:28;99999.56;;;16.52;78.17
76352;BME280;65179;47.786;19.138;2023-05-23T02:32:53;100011.22;;;16.32;79.04
76352;BME280;65179;47.786;19.138;2023-05-23T02:35:19;100002.44;;;16.30;79.15
76352;BME280;65179;47.786;19.138;2023-05-23T02:37:45;100003.59;;;16.39;78.65
76352;BME280;65179;47.786;19.138;2023-05-23T02:40:10;100000.78;;;16.29;78.55
76352;BME280;65179;47.786;19.138;2023-05-23T02:42:36;100008.91;;;16.14;79.28
76352;BME280;65179;47.786;19.138;2023-05-23T02:45:01;100004.47;;;15.98;79.92
76352;BME280;65179;47.786;19.138;2023-05-23T02:47:27;99996.81;;;16.05;79.98
76352;BME280;65179;47.786;19.138;2023-05-23T02:49:52;100002.25;;;15.95;80.05
76352;BME280;65179;47.786;19.138;2023-05-23T02:52:18;100008.72;;;15.84;80.68
76352;BME280;65179;47.786;19.138;2023-05-23T02:54:43;100007.31;;;15.76;80.83
76352;BME280;65179;47.786;19.138;2023-05-23T02:57:08;100010.84;;;15.72;80.98
76352;BME280;65179;47.786;19.138;2023-05-23T02:59:34;100006.87;;;15.94;80.08
76352;BME280;65179;47.786;19.138;2023-05-23T03:02:00;100006.37;;;16.03;79.93
76352;BME280;65179;47.786;19.138;2023-05-23T03:04:26;100005.56;;;16.02;80.24
76352;BME280;65179;47.786;19.138;2023-05-23T03:06:51;100004.66;;;15.86;80.70
76352;BME280;65179;47.786;19.138;2023-05-23T03:09:18;100004.41;;;15.93;80.58
76352;BME280;65179;47.786;19.138;2023-05-23T03:11:44;100005.31;;;16.04;80.15
76352;BME280;65179;47.786;19.138;2023-05-23T03:14:10;100005.03;;;16.00;80.26
76352;BME280;65179;47.786;19.138;2023-05-23T03:16:36;100002.56;;;16.04;80.31
76352;BME280;65179;47.786;19.138;2023-05-23T03:19:01;99996.50;;;15.97;80.97
76352;BME280;65179;47.786;19.138;2023-05-23T03:21:27;100001.72;;;16.03;80.07
76352;BME280;65179;47.786;19.138;2023-05-23T03:23:52;100005.81;;;15.96;80.54
76352;BME280;65179;47.786;19.138;2023-05-23T03:26:18;100006.69;;;16.06;80.05
76352;BME280;65179;47.786;19.138;2023-05-23T03:28:43;100005.34;;;16.09;80.17
76352;BME280;65179;47.786;19.138;2023-05-23T03:31:09;100005.56;;;16.02;80.57
76352;BME280;65179;47.786;19.138;2023-05-23T03:33:34;100013.81;;;16.07;80.12
76352;BME280;65179;47.786;19.138;2023-05-23T03:36:00;100006.47;;;16.13;79.56
76352;BME280;65179;47.786;19.138;2023-05-23T03:38:26;100002.38;;;16.15;79.79
76352;BME280;65179;47.786;19.138;2023-05-23T03:40:52;100007.81;;;16.10;80.27
76352;BME280;65179;47.786;19.138;2023-05-23T03:43:18;100017.38;;;16.08;80.73
76352;BME280;65179;47.786;19.138;2023-05-23T03:45:43;100008.41;;;16.17;80.02
76352;BME280;65179;47.786;19.138;2023-05-23T03:48:08;100012.72;;;16.08;80.24
76352;BME280;65179;47.786;19.138;2023-05-23T03:50:34;100017.06;;;15.99;80.78
76352;BME280;65179;47.786;19.138;2023-05-23T03:53:00;100013.28;;;16.10;80.49
76352;BME280;65179;47.786;19.138;2023-05-23T03:55:25;100014.50;;;15.87;81.26
76352;BME280;65179;47.786;19.138;2023-05-23T03:57:51;100016.16;;;15.88;81.48
76352;BME280;65179;47.786;19.138;2023-05-23T04:00:17;100017.50;;;15.86;81.97
76352;BME280;65179;47.786;19.138;2023-05-23T04:02:43;100020.28;;;15.91;81.92
76352;BME280;65179;47.786;19.138;2023-05-23T04:05:10;100015.44;;;16.03;81.52
76352;BME280;65179;47.786;19.138;2023-05-23T04:07:36;100021.13;;;15.97;82.54
76352;BME280;65179;47.786;19.138;2023-05-23T04:10:03;100016.53;;;16.02;82.30
76352;BME280;65179;47.786;19.138;2023-05-23T04:12:29;100017.94;;;16.10;81.35
76352;BME280;65179;47.786;19.138;2023-05-23T04:14:57;100019.84;;;16.04;81.73
76352;BME280;65179;47.786;19.138;2023-05-23T04:17:23;100025.22;;;15.89;81.57
76352;BME280;65179;47.786;19.138;2023-05-23T04:19:49;100029.63;;;15.95;81.14
76352;BME280;65179;47.786;19.138;2023-05-23T04:22:15;100025.31;;;16.04;81.49
76352;BME280;65179;47.786;19.138;2023-05-23T04:24:40;100020.94;;;16.08;81.08
76352;BME280;65179;47.786;19.138;2023-05-23T04:27:06;100021.00;;;16.13;80.68
76352;BME280;65179;47.786;19.138;2023-05-23T04:29:32;100022.91;;;16.13;81.10
76352;BME280;65179;47.786;19.138;2023-05-23T04:31:58;100014.97;;;16.16;81.31
76352;BME280;65179;47.786;19.138;2023-05-23T04:34:25;100018.81;;;16.20;81.02
76352;BME280;65179;47.786;19.138;2023-05-23T04:36:51;100023.25;;;16.26;80.96
76352;BME280;65179;47.786;19.138;2023-05-23T04:39:18;100011.69;;;16.19;81.15
76352;BME280;65179;47.786;19.138;2023-05-23T04:41:43;100004.38;;;16.35;80.79
76352;BME280;65179;47.786;19.138;2023-05-23T04:44:10;100014.03;;;16.47;80.69
76352;BME280;65179;47.786;19.138;2023-05-23T04:46:35;100000.94;;;16.59;80.96
76352;BME280;65179;47.786;19.138;2023-05-23T04:49:02;100011.38;;;16.67;80.39
76352;BME280;65179;47.786;19.138;2023-05-23T04:51:28;100007.84;;;16.77;80.04
76352;BME280;65179;47.786;19.138;2023-05-23T04:53:53;100001.84;;;16.80;80.39
76352;BME280;65179;47.786;19.138;2023-05-23T04:56:19;100005.41;;;16.86;80.42
76352;BME280;65179;47.786;19.138;2023-05-23T04:58:47;100006.81;;;16.93;80.40
76352;BME280;65179;47.786;19.138;2023-05-23T05:01:13;100004.06;;;16.98;80.12
76352;BME280;65179;47.786;19.138;2023-05-23T05:03:39;100010.37;;;16.94;80.86
76352;BME280;65179;47.786;19.138;2023-05-23T05:06:05;100009.28;;;16.85;80.78
76352;BME280;65179;47.786;19.138;2023-05-23T05:08:31;99999.41;;;16.99;80.43
76352;BME280;65179;47.786;19.138;2023-05-23T05:10:56;99997.50;;;17.09;80.21
76352;BME280;65179;47.786;19.138;2023-05-23T05:13:22;100004.13;;;17.18;80.26
76352;BME280;65179;47.786;19.138;2023-05-23T05:15:47;99998.91;;;17.27;80.07
76352;BME280;65179;47.786;19.138;2023-05-23T05:18:13;100001.38;;;17.33;79.64
76352;BME280;65179;47.786;19.138;2023-05-23T05:20:38;99997.81;;;17.28;80.14
76352;BME280;65179;47.786;19.138;2023-05-23T05:23:04;100006.84;;;17.18;79.87
76352;BME280;65179;47.786;19.138;2023-05-23T05:25:29;100002.69;;;17.01;81.88
76352;BME280;65179;47.786;19.138;2023-05-23T05:28:01;100005.16;;;17.02;81.63
76352;BME280;65179;47.786;19.138;2023-05-23T05:30:30;100005.47;;;17.11;81.73
76352;BME280;65179;47.786;19.138;2023-05-23T05:33:02;100005.50;;;17.36;81.19
76352;BME280;65179;47.786;19.138;2023-05-23T05:35:30;100008.53;;;17.44;80.31
76352;BME280;65179;47.786;19.138;2023-05-23T05:37:55;100003.31;;;17.63;79.18
76352;BME280;65179;47.786;19.138;2023-05-23T05:40:21;100013.50;;;17.68;79.02
76352;BME280;65179;47.786;19.138;2023-05-23T05:42:46;100015.97;;;17.69;78.80
76352;BME280;65179;47.786;19.138;2023-05-23T05:45:12;100006.59;;;17.90;77.84
76352;BME280;65179;47.786;19.138;2023-05-23T05:47:37;100008.53;;;17.90;77.29
76352;BME280;65179;47.786;19.138;2023-05-23T05:50:04;100009.87;;;18.02;76.89
76352;BME280;65179;47.786;19.138;2023-05-23T05:52:30;100014.53;;;18.02;76.28
76352;BME280;65179;47.786;19.138;2023-05-23T05:54:56;100008.28;;;17.86;77.09
76352;BME280;65179;47.786;19.138;2023-05-23T05:57:22;100007.69;;;17.94;76.55
76352;BME280;65179;47.786;19.138;2023-05-23T05:59:47;100016.19;;;18.08;76.44
76352;BME280;65179;47.786;19.138;2023-05-23T06:02:12;100008.19;;;18.22;75.94
76352;BME280;65179;47.786;19.138;2023-05-23T06:04:38;100002.63;;;18.42;75.73
76352;BME280;65179;47.786;19.138;2023-05-23T06:07:04;100009.22;;;18.56;74.83
76352;BME280;65179;47.786;19.138;2023-05-23T06:09:29;100004.78;;;18.60;74.26
76352;BME280;65179;47.786;19.138;2023-05-23T06:11:55;100004.13;;;18.78;75.00
76352;BME280;65179;47.786;19.138;2023-05-23T06:14:20;100009.63;;;18.83;74.42
76352;BME280;65179;47.786;19.138;2023-05-23T06:16:45;100006.78;;;18.98;73.49
76352;BME280;65179;47.786;19.138;2023-05-23T06:19:11;100003.19;;;19.03;72.18
76352;BME280;65179;47.786;19.138;2023-05-23T06:21:36;100007.22;;;19.15;73.23
76352;BME280;65179;47.786;19.138;2023-05-23T06:24:02;100007.13;;;19.35;71.55
76352;BME280;65179;47.786;19.138;2023-05-23T06:26:27;100004.47;;;19.54;71.93
76352;BME280;65179;47.786;19.138;2023-05-23T06:28:52;100009.84;;;19.40;68.55
76352;BME280;65179;47.786;19.138;2023-05-23T06:31:18;100011.22;;;19.38;67.22
76352;BME280;65179;47.786;19.138;2023-05-23T06:33:43;100011.97;;;19.48;68.58
76352;BME280;65179;47.786;19.138;2023-05-23T06:36:09;100010.81;;;19.54;68.26
76352;BME280;65179;47.786;19.138;2023-05-23T06:38:34;100010.16;;;19.67;65.87
76352;BME280;65179;47.786;19.138;2023-05-23T06:40:59;100003.34;;;19.89;66.82
76352;BME280;65179;47.786;19.138;2023-05-23T06:43:26;100009.22;;;20.06;65.73
76352;BME280;65179;47.786;19.138;2023-05-23T06:45:52;100003.78;;;20.01;67.04
76352;BME280;65179;47.786;19.138;2023-05-23T06:48:18;100004.25;;;20.08;65.36
76352;BME280;65179;47.786;19.138;2023-05-23T06:50:43;100006.59;;;20.19;64.06
76352;BME280;65179;47.786;19.138;2023-05-23T06:53:08;100001.19;;;20.38;63.85
76352;BME280;65179;47.786;19.138;2023-05-23T06:55:34;99999.94;;;20.49;63.70
76352;BME280;65179;47.786;19.138;2023-05-23T06:57:59;99992.47;;;20.31;61.88
76352;BME280;65179;47.786;19.138;2023-05-23T07:00:25;99993.50;;;20.35;63.86
76352;BME280;65179;47.786;19.138;2023-05-23T07:02:50;99993.37;;;20.45;63.67
76352;BME280;65179;47.786;19.138;2023-05-23T07:05:16;99983.91;;;20.51;65.10
76352;BME280;65179;47.786;19.138;2023-05-23T07:07:42;99989.06;;;20.58;63.21
76352;BME280;65179;47.786;19.138;2023-05-23T07:10:08;99980.91;;;20.71;63.89
76352;BME280;65179;47.786;19.138;2023-05-23T07:12:34;99983.50;;;20.81;65.87
76352;BME280;65179;47.786;19.138;2023-05-23T07:14:59;99982.25;;;20.92;63.60
76352;BME280;65179;47.786;19.138;2023-05-23T07:17:25;99986.81;;;21.02;63.18
76352;BME280;65179;47.786;19.138;2023-05-23T07:19:50;99981.25;;;21.26;62.59
76352;BME280;65179;47.786;19.138;2023-05-23T07:22:16;99981.38;;;21.34;61.68
76352;BME280;65179;47.786;19.138;2023-05-23T07:24:41;99974.19;;;21.52;61.97
76352;BME280;65179;47.786;19.138;2023-05-23T07:27:06;99974.84;;;21.62;60.94
76352;BME280;65179;47.786;19.138;2023-05-23T07:29:32;99976.63;;;21.72;61.21
76352;BME280;65179;47.786;19.138;2023-05-23T07:31:57;99972.78;;;21.86;60.99
76352;BME280;65179;47.786;19.138;2023-05-23T07:34:23;99969.00;;;21.96;60.15
76352;BME280;65179;47.786;19.138;2023-05-23T07:36:49;99970.63;;;21.97;60.48
76352;BME280;65179;47.786;19.138;2023-05-23T07:39:14;99972.47;;;21.88;59.14
76352;BME280;65179;47.786;19.138;2023-05-23T07:41:46;99977.00;;;22.11;60.47
76352;BME280;65179;47.786;19.138;2023-05-23T07:44:11;99974.97;;;22.17;60.40
76352;BME280;65179;47.786;19.138;2023-05-23T07:46:37;99967.91;;;22.11;60.23
76352;BME280;65179;47.786;19.138;2023-05-23T07:49:02;99978.13;;;22.37;60.60
76352;BME280;65179;47.786;19.138;2023-05-23T07:51:27;99975.50;;;22.32;59.78
76352;BME280;65179;47.786;19.138;2023-05-23T07:53:53;99967.81;;;22.56;59.37
76352;BME280;65179;47.786;19.138;2023-05-23T07:56:18;99968.84;;;22.60;59.06
76352;BME280;65179;47.786;19.138;2023-05-23T07:58:44;99972.06;;;22.90;59.28
76352;BME280;65179;47.786;19.138;2023-05-23T08:01:09;99978.78;;;23.11;58.47
76352;BME280;65179;47.786;19.138;2023-05-23T08:03:34;99973.62;;;23.18;57.70
76352;BME280;65179;47.786;19.138;2023-05-23T08:06:00;99970.72;;;23.37;57.20
76352;BME280;65179;47.786;19.138;2023-05-23T08:08:26;99972.91;;;23.48;56.28
76352;BME280;65179;47.786;19.138;2023-05-23T08:10:52;99968.13;;;23.62;56.33
76352;BME280;65179;47.786;19.138;2023-05-23T08:13:17;99964.13;;;23.77;56.13
76352;BME280;65179;47.786;19.138;2023-05-23T08:15:42;99966.50;;;23.92;56.26
76352;BME280;65179;47.786;19.138;2023-05-23T08:18:08;99960.09;;;24.05;55.80
76352;BME280;65179;47.786;19.138;2023-05-23T08:20:33;99960.16;;;24.22;56.13
76352;BME280;65179;47.786;19.138;2023-05-23T08:22:59;99964.25;;;24.25;55.90
76352;BME280;65179;47.786;19.138;2023-05-23T08:25:27;99960.19;;;24.31;54.40
76352;BME280;65179;47.786;19.138;2023-05-23T08:27:56;99957.22;;;24.19;52.72
76352;BME280;65179;47.786;19.138;2023-05-23T08:30:26;99957.75;;;24.29;52.70
76352;BME280;65179;47.786;19.138;2023-05-23T08:32:52;99960.63;;;24.63;53.68
76352;BME280;65179;47.786;19.138;2023-05-23T08:35:19;99955.63;;;24.82;52.25
76352;BME280;65179;47.786;19.138;2023-05-23T08:37:45;99954.16;;;24.85;52.18
76352;BME280;65179;47.786;19.138;2023-05-23T08:40:13;99952.69;;;25.13;51.33
76352;BME280;65179;47.786;19.138;2023-05-23T08:42:43;99955.97;;;24.98;51.72
76352;BME280;65179;47.786;19.138;2023-05-23T08:45:08;99964.47;;;25.36;51.06
76352;BME280;65179;47.786;19.138;2023-05-23T08:47:36;99955.97;;;25.58;50.87
76352;BME280;65179;47.786;19.138;2023-05-23T08:50:12;99960.22;;;25.64;50.67
76352;BME280;65179;47.786;19.138;2023-05-23T08:52:54;99954.87;;;25.97;51.11
76352;BME280;65179;47.786;19.138;2023-05-23T08:55:23;99958.66;;;26.09;49.87
76352;BME280;65179;47.786;19.138;2023-05-23T08:57:49;99963.72;;;26.16;49.93
76352;BME280;65179;47.786;19.138;2023-05-23T09:00:16;99957.00;;;26.08;48.93
76352;BME280;65179;47.786;19.138;2023-05-23T09:02:43;99959.75;;;26.17;47.44
76352;BME280;65179;47.786;19.138;2023-05-23T09:05:12;99957.00;;;26.08;47.86
76352;BME280;65179;47.786;19.138;2023-05-23T09:07:43;99956.97;;;26.17;48.50
76352;BME280;65179;47.786;19.138;2023-05-23T09:10:09;99952.75;;;26.40;47.80
76352;BME280;65179;47.786;19.138;2023-05-23T09:12:35;99949.63;;;26.50;47.38
76352;BME280;65179;47.786;19.138;2023-05-23T09:15:03;99951.38;;;26.25;47.91
76352;BME280;65179;47.786;19.138;2023-05-23T09:17:30;99946.28;;;26.27;48.41
76352;BME280;65179;47.786;19.138;2023-05-23T09:19:56;99947.50;;;26.18;48.95
76352;BME280;65179;47.786;19.138;2023-05-23T09:22:26;99950.72;;;26.28;48.20
76352;BME280;65179;47.786;19.138;2023-05-23T09:24:53;99949.88;;;26.66;46.77
76352;BME280;65179;47.786;19.138;2023-05-23T09:27:19;99942.78;;;26.97;46.01
76352;BME280;65179;47.786;19.138;2023-05-23T09:29:44;99952.75;;;26.78;46.05
76352;BME280;65179;47.786;19.138;2023-05-23T09:34:41;99944.44;;;27.31;44.33
76352;BME280;65179;47.786;19.138;2023-05-23T09:37:07;99948.25;;;27.35;43.45
76352;BME280;65179;47.786;19.138;2023-05-23T09:39:36;99940.97;;;27.55;41.22
76352;BME280;65179;47.786;19.138;2023-05-23T09:42:02;99943.13;;;27.70;41.05
76352;BME280;65179;47.786;19.138;2023-05-23T09:44:28;99945.22;;;28.18;39.96
76352;BME280;65179;47.786;19.138;2023-05-23T09:46:54;99944.06;;;28.55;38.77
76352;BME280;65179;47.786;19.138;2023-05-23T09:49:19;99948.25;;;28.25;37.53
76352;BME280;65179;47.786;19.138;2023-05-23T09:51:57;99939.44;;;27.90;36.85
76352;BME280;65179;47.786;19.138;2023-05-23T09:54:22;99937.88;;;28.13;36.01
76352;BME280;65179;47.786;19.138;2023-05-23T09:56:50;99932.53;;;28.20;35.79
76352;BME280;65179;47.786;19.138;2023-05-23T09:59:17;99935.34;;;28.81;36.80
76352;BME280;65179;47.786;19.138;2023-05-23T10:01:50;99937.91;;;28.86;35.85
76352;BME280;65179;47.786;19.138;2023-05-23T10:04:20;99917.53;;;29.13;35.34
76352;BME280;65179;47.786;19.138;2023-05-23T10:06:57;99924.72;;;29.38;35.40
76352;BME280;65179;47.786;19.138;2023-05-23T10:09:29;99913.66;;;29.57;35.82
76352;BME280;65179;47.786;19.138;2023-05-23T10:15:03;99913.38;;;29.74;35.10
76352;BME280;65179;47.786;19.138;2023-05-23T10:18:08;99910.16;;;29.60;35.82
76352;BME280;65179;47.786;19.138;2023-05-23T10:20:35;99911.50;;;29.23;34.77
76352;BME280;65179;47.786;19.138;2023-05-23T10:23:02;99911.41;;;29.90;34.98
76352;BME280;65179;47.786;19.138;2023-05-23T10:25:29;99912.66;;;30.09;34.81
76352;BME280;65179;47.786;19.138;2023-05-23T10:27:56;99914.06;;;29.28;35.53
76352;BME280;65179;47.786;19.138;2023-05-23T10:30:26;99920.53;;;28.92;33.66
76352;BME280;65179;47.786;19.138;2023-05-23T10:32:56;99912.06;;;28.40;34.88
76352;BME280;65179;47.786;19.138;2023-05-23T10:41:08;99894.44;;;29.56;35.17
76352;BME280;65179;47.786;19.138;2023-05-23T10:46:51;99898.34;;;28.72;38.75
76352;BME280;65179;47.786;19.138;2023-05-23T10:49:18;99892.81;;;29.27;39.84
76352;BME280;65179;47.786;19.138;2023-05-23T10:51:47;99893.78;;;28.79;38.63
76352;BME280;65179;47.786;19.138;2023-05-23T10:54:13;99906.41;;;29.01;35.91
76352;BME280;65179;47.786;19.138;2023-05-23T10:56:39;99887.22;;;29.27;36.76
76352;BME280;65179;47.786;19.138;2023-05-23T10:59:04;99892.16;;;29.18;35.96
76352;BME280;65179;47.786;19.138;2023-05-23T11:01:31;99891.97;;;28.99;36.19
76352;BME280;65179;47.786;19.138;2023-05-23T11:03:56;99883.78;;;28.66;35.01
76352;BME280;65179;47.786;19.138;2023-05-23T11:06:38;99884.53;;;28.91;33.82
76352;BME280;65179;47.786;19.138;2023-05-23T11:09:11;99883.28;;;28.76;36.03
76352;BME280;65179;47.786;19.138;2023-05-23T11:17:00;99867.91;;;29.22;34.47
76352;BME280;65179;47.786;19.138;2023-05-23T11:19:39;99862.34;;;28.70;32.17
76352;BME280;65179;47.786;19.138;2023-05-23T11:22:19;99860.38;;;29.38;34.35
76352;BME280;65179;47.786;19.138;2023-05-23T11:24:49;99863.09;;;29.50;33.05
76352;BME280;65179;47.786;19.138;2023-05-23T11:27:16;99863.31;;;30.20;33.86
76352;BME280;65179;47.786;19.138;2023-05-23T11:29:55;99858.41;;;30.48;32.33
76352;BME280;65179;47.786;19.138;2023-05-23T11:32:22;99851.69;;;30.02;32.14
76352;BME280;65179;47.786;19.138;2023-05-23T11:34:48;99861.53;;;30.12;33.05
76352;BME280;65179;47.786;19.138;2023-05-23T11:37:14;99845.56;;;29.96;33.84
76352;BME280;65179;47.786;19.138;2023-05-23T11:39:39;99843.66;;;30.01;34.41
76352;BME280;65179;47.786;19.138;2023-05-23T11:42:05;99834.16;;;29.89;33.64
76352;BME280;65179;47.786;19.138;2023-05-23T11:44:30;99842.53;;;29.58;35.97
76352;BME280;65179;47.786;19.138;2023-05-23T11:47:04;99832.25;;;29.62;37.10
76352;BME280;65179;47.786;19.138;2023-05-23T11:49:33;99823.91;;;29.50;36.60
76352;BME280;65179;47.786;19.138;2023-05-23T11:52:01;99824.03;;;29.54;36.19
76352;BME280;65179;47.786;19.138;2023-05-23T11:54:27;99815.72;;;29.73;36.23
76352;BME280;65179;47.786;19.138;2023-05-23T11:56:53;99814.19;;;30.07;37.10
76352;BME280;65179;47.786;19.138;2023-05-23T11:59:23;99808.16;;;29.73;36.26
76352;BME280;65179;47.786;19.138;2023-05-23T12:01:50;99807.06;;;29.93;36.77
76352;BME280;65179;47.786;19.138;2023-05-23T12:04:16;99805.06;;;30.10;36.61
76352;BME280;65179;47.786;19.138;2023-05-23T12:06:42;99790.88;;;29.40;37.55
76352;BME280;65179;47.786;19.138;2023-05-23T12:09:10;99794.13;;;30.05;36.89
76352;BME280;65179;47.786;19.138;2023-05-23T12:11:38;99790.00;;;29.98;34.48
76352;BME280;65179;47.786;19.138;2023-05-23T12:14:03;99780.84;;;29.55;35.73
76352;BME280;65179;47.786;19.138;2023-05-23T12:16:34;99779.41;;;29.30;35.72
76352;BME280;65179;47.786;19.138;2023-05-23T12:19:01;99776.34;;;29.66;36.76
76352;BME280;65179;47.786;19.138;2023-05-23T12:21:47;99779.59;;;29.52;35.57
76352;BME280;65179;47.786;19.138;2023-05-23T12:26:56;99770.50;;;29.86;35.04
76352;BME280;65179;47.786;19.138;2023-05-23T12:29:28;99769.59;;;29.82;36.05
76352;BME280;65179;47.786;19.138;2023-05-23T12:31:53;99766.88;;;30.02;36.48
76352;BME280;65179;47.786;19.138;2023-05-23T12:34:20;99766.41;;;29.99;35.17
76352;BME280;65179;47.786;19.138;2023-05-23T12:36:46;99753.38;;;30.07;35.33
76352;BME280;65179;47.786;19.138;2023-05-23T12:39:13;99755.16;;;30.15;34.62
76352;BME280;65179;47.786;19.138;2023-05-23T12:41:43;99750.53;;;29.88;34.99
76352;BME280;65179;47.786;19.138;2023-05-23T12:44:08;99742.47;;;30.02;36.97
76352;BME280;65179;47.786;19.138;2023-05-23T12:46:34;99748.53;;;29.73;35.52
76352;BME280;65179;47.786;19.138;2023-05-23T12:48:59;99737.16;;;29.50;35.21
76352;BME280;65179;47.786;19.138;2023-05-23T12:51:25;99731.03;;;29.76;35.59
76352;BME280;65179;47.786;19.138;2023-05-23T12:53:50;99732.03;;;29.83;35.37
76352;BME280;65179;47.786;19.138;2023-05-23T12:56:16;99721.78;;;30.26;34.54
76352;BME280;65179;47.786;19.138;2023-05-23T12:58:42;99720.91;;;30.22;35.46
76352;BME280;65179;47.786;19.138;2023-05-23T13:01:08;99731.03;;;30.11;35.82
76352;BME280;65179;47.786;19.138;2023-05-23T13:03:33;99724.25;;;29.92;35.77
76352;BME280;65179;47.786;19.138;2023-05-23T13:05:59;99729.44;;;29.75;35.53
76352;BME280;65179;47.786;19.138;2023-05-23T13:08:25;99719.97;;;29.98;35.72
76352;BME280;65179;47.786;19.138;2023-05-23T13:10:54;99721.31;;;30.05;35.28
76352;BME280;65179;47.786;19.138;2023-05-23T13:13:20;99722.44;;;30.19;35.38